createdAt,value
2023-03-06T00:01:07.914Z,8.80
2023-03-06T00:03:35.167Z,8.80
2023-03-06T00:06:02.474Z,7.30
2023-03-06T00:08:29.603Z,8.20
2023-03-06T00:10:57.335Z,8.00
2023-03-06T00:13:29.560Z,8.30
2023-03-06T00:16:00.484Z,8.80
2023-03-06T00:18:28.670Z,7.80
2023-03-06T00:20:55.752Z,6.80
2023-03-06T00:23:22.708Z,6.10
2023-03-06T00:25:50.909Z,6.30
2023-03-06T00:28:21.114Z,5.90
2023-03-06T00:30:48.021Z,6.80
2023-03-06T00:33:15.180Z,6.60
2023-03-06T00:35:42.190Z,6.90
2023-03-06T00:38:11.779Z,8.60
2023-03-06T00:40:38.949Z,9.40
2023-03-06T00:43:05.970Z,10.00
2023-03-06T00:45:33.005Z,10.60
2023-03-06T00:48:00.084Z,9.10
2023-03-06T00:50:27.078Z,10.00
2023-03-06T00:52:54.039Z,10.50
2023-03-06T00:55:21.096Z,10.20
2023-03-06T00:57:48.271Z,9.70
2023-03-06T01:00:15.554Z,9.10
2023-03-06T01:02:42.688Z,7.60
2023-03-06T01:05:13.513Z,8.10
2023-03-06T01:07:40.571Z,8.60
2023-03-06T01:10:08.407Z,8.50
2023-03-06T01:12:35.387Z,8.00
2023-03-06T01:15:04.022Z,8.70
2023-03-06T01:17:30.990Z,8.00
2023-03-06T01:19:58.017Z,8.70
2023-03-06T01:22:24.966Z,8.20
2023-03-06T01:24:53.240Z,8.20
2023-03-06T01:27:21.637Z,8.60
2023-03-06T01:29:48.640Z,8.30
2023-03-06T01:32:15.986Z,7.60
2023-03-06T01:34:42.935Z,7.10
2023-03-06T01:37:09.864Z,8.30
2023-03-06T01:39:36.942Z,8.50
2023-03-06T01:42:04.753Z,9.20
2023-03-06T01:44:31.815Z,9.00
2023-03-06T01:47:01.661Z,8.90
2023-03-06T01:49:36.177Z,8.00
2023-03-06T01:52:06.049Z,8.20
2023-03-06T01:55:05.076Z,7.80
2023-03-06T01:57:37.476Z,8.40
2023-03-06T02:00:18.326Z,7.90
2023-03-06T02:02:52.577Z,7.30
2023-03-06T02:05:21.394Z,8.70
2023-03-06T02:07:50.302Z,7.40
2023-03-06T02:10:19.271Z,8.20
2023-03-06T02:12:48.929Z,7.60
2023-03-06T02:15:20.794Z,6.90
2023-03-06T02:17:49.954Z,9.50
2023-03-06T02:20:30.727Z,7.40
2023-03-06T02:23:30.941Z,8.00
2023-03-06T02:25:59.029Z,8.40
2023-03-06T02:28:27.385Z,7.60
2023-03-06T02:30:55.743Z,8.00
2023-03-06T02:33:25.896Z,8.60
2023-03-06T02:35:57.066Z,7.60
2023-03-06T02:38:31.557Z,10.50
2023-03-06T02:41:01.122Z,10.90
2023-03-06T02:43:34.294Z,9.90
2023-03-06T02:46:02.438Z,9.20
2023-03-06T02:48:29.511Z,8.40
2023-03-06T02:50:56.464Z,10.40
2023-03-06T02:53:23.583Z,10.10
2023-03-06T02:55:50.701Z,9.90
2023-03-06T02:58:20.181Z,9.30
2023-03-06T03:00:49.468Z,9.60
2023-03-06T03:03:18.164Z,9.20
2023-03-06T03:05:45.160Z,10.40
2023-03-06T03:08:22.210Z,11.20
2023-03-06T03:10:51.326Z,10.90
2023-03-06T03:13:19.104Z,11.40
2023-03-06T03:16:07.421Z,10.80
2023-03-06T03:18:35.609Z,11.40
2023-03-06T03:21:08.137Z,11.70
2023-03-06T03:23:35.116Z,12.40
2023-03-06T03:26:11.276Z,11.20
2023-03-06T03:28:40.447Z,12.10
2023-03-06T03:31:10.132Z,12.20
2023-03-06T03:33:38.365Z,12.10
2023-03-06T03:36:07.308Z,10.70
2023-03-06T03:38:35.294Z,11.30
2023-03-06T03:41:04.251Z,12.40
2023-03-06T03:43:31.882Z,12.00
2023-03-06T03:45:59.045Z,11.70
2023-03-06T03:48:26.209Z,12.40
2023-03-06T03:50:53.241Z,11.10
2023-03-06T03:53:20.522Z,11.60
2023-03-06T03:55:48.740Z,10.00
2023-03-06T03:58:16.135Z,13.50
2023-03-06T04:00:43.197Z,12.80
2023-03-06T04:03:12.333Z,12.30
2023-03-06T04:05:42.468Z,12.00
2023-03-06T04:08:11.180Z,12.30
2023-03-06T04:10:41.223Z,12.80
2023-03-06T04:13:10.216Z,13.50
2023-03-06T04:15:41.894Z,13.40
2023-03-06T04:18:09.757Z,14.10
2023-03-06T04:20:36.770Z,14.00
2023-03-06T04:23:04.657Z,13.50
2023-03-06T04:25:32.088Z,15.40
2023-03-06T04:28:01.114Z,14.90
2023-03-06T04:30:29.008Z,13.80
2023-03-06T04:32:57.137Z,15.10
2023-03-06T04:35:24.177Z,13.90
2023-03-06T04:37:57.398Z,15.50
2023-03-06T04:40:29.260Z,16.50
2023-03-06T04:42:58.666Z,15.00
2023-03-06T04:45:27.785Z,18.20
2023-03-06T04:47:55.258Z,20.00
2023-03-06T04:50:24.500Z,16.90
2023-03-06T04:52:52.134Z,15.80
2023-03-06T04:55:19.300Z,14.60
2023-03-06T04:57:47.102Z,17.40
2023-03-06T05:00:20.929Z,19.70
2023-03-06T05:02:49.208Z,20.00
2023-03-06T05:05:17.082Z,20.00
2023-03-06T05:07:44.841Z,20.20
2023-03-06T05:10:18.973Z,19.10
2023-03-06T05:12:46.369Z,19.10
2023-03-06T05:15:15.048Z,19.60
2023-03-06T05:17:44.390Z,20.70
2023-03-06T05:20:17.225Z,22.60
2023-03-06T05:22:44.391Z,21.70
2023-03-06T05:25:11.471Z,22.90
2023-03-06T05:27:39.446Z,21.10
2023-03-06T05:30:10.049Z,24.00
2023-03-06T05:32:37.397Z,24.10
2023-03-06T05:35:05.740Z,28.00
2023-03-06T05:37:33.772Z,24.10
2023-03-06T05:40:06.007Z,23.60
2023-03-06T05:42:32.975Z,24.50
2023-03-06T05:45:02.277Z,27.00
2023-03-06T05:47:30.854Z,27.90
2023-03-06T05:49:58.569Z,23.60
2023-03-06T05:52:25.564Z,25.40
2023-03-06T05:54:53.991Z,24.30
2023-03-06T05:57:23.155Z,28.40
2023-03-06T05:59:50.767Z,28.00
2023-03-06T06:02:18.926Z,26.50
2023-03-06T06:04:46.446Z,23.00
2023-03-06T06:07:15.832Z,22.00
2023-03-06T06:09:47.939Z,22.30
2023-03-06T06:12:18.109Z,23.80
2023-03-06T06:14:45.161Z,24.50
2023-03-06T06:17:12.272Z,23.30
2023-03-06T06:19:39.257Z,39.80
2023-03-06T06:22:06.340Z,60.20
2023-03-06T06:24:33.562Z,31.00
2023-03-06T06:27:04.191Z,26.70
2023-03-06T06:29:33.352Z,27.80
2023-03-06T06:32:01.071Z,27.00
2023-03-06T06:34:30.026Z,23.00
2023-03-06T06:36:57.382Z,21.40
2023-03-06T06:39:24.506Z,19.80
2023-03-06T06:42:09.675Z,20.40
2023-03-06T06:44:41.206Z,20.10
2023-03-06T06:47:25.374Z,20.90
2023-03-06T06:49:56.786Z,20.40
2023-03-06T06:52:24.665Z,20.70
2023-03-06T06:54:52.452Z,19.30
2023-03-06T06:57:19.512Z,19.60
2023-03-06T06:59:46.555Z,19.40
2023-03-06T07:02:15.471Z,20.00
2023-03-06T07:05:00.435Z,19.60
2023-03-06T07:07:33.048Z,20.60
2023-03-06T07:10:00.204Z,19.10
2023-03-06T07:12:27.179Z,18.30
2023-03-06T07:14:54.218Z,18.00
2023-03-06T07:17:21.384Z,17.70
2023-03-06T07:19:48.442Z,17.80
2023-03-06T07:22:15.514Z,16.00
2023-03-06T07:24:42.620Z,15.20
2023-03-06T07:27:09.619Z,15.70
2023-03-06T07:29:36.583Z,16.30
2023-03-06T07:32:03.674Z,15.90
2023-03-06T07:34:30.608Z,15.70
2023-03-06T07:36:57.504Z,14.90
2023-03-06T07:39:24.555Z,15.30
2023-03-06T07:41:51.756Z,15.30
2023-03-06T07:44:18.949Z,27.80
2023-03-06T07:46:45.965Z,18.40
2023-03-06T07:49:12.972Z,20.50
2023-03-06T07:51:39.943Z,15.00
2023-03-06T07:54:07.141Z,14.30
2023-03-06T07:56:35.313Z,15.30
2023-03-06T07:59:03.224Z,24.80
2023-03-06T08:01:30.252Z,51.20
2023-03-06T08:03:57.304Z,90.70
2023-03-06T08:06:26.266Z,89.20
2023-03-06T08:08:55.847Z,57.40
2023-03-06T08:11:25.855Z,25.50
2023-03-06T08:13:53.975Z,29.00
2023-03-06T08:16:23.466Z,46.40
2023-03-06T08:18:50.719Z,44.20
2023-03-06T08:21:23.485Z,34.00
2023-03-06T08:23:51.122Z,34.50
2023-03-06T08:26:21.053Z,29.60
2023-03-06T08:28:48.236Z,14.30
2023-03-06T08:31:27.638Z,19.60
2023-03-06T08:33:56.541Z,15.20
2023-03-06T08:36:23.651Z,13.40
2023-03-06T08:38:51.081Z,13.60
2023-03-06T08:41:20.337Z,14.20
2023-03-06T08:43:48.538Z,15.60
2023-03-06T08:46:15.540Z,15.30
2023-03-06T08:48:42.600Z,16.30
2023-03-06T08:51:10.249Z,17.40
2023-03-06T08:53:43.276Z,15.20
2023-03-06T08:56:23.784Z,12.20
2023-03-06T08:58:53.046Z,14.00
2023-03-06T09:01:24.242Z,9.20
2023-03-06T09:03:54.611Z,48.10
2023-03-06T09:06:23.462Z,16.30
2023-03-06T09:08:51.992Z,8.70
2023-03-06T09:11:20.380Z,121.20
2023-03-06T09:13:47.409Z,52.90
2023-03-06T09:16:14.698Z,41.30
2023-03-06T09:18:41.777Z,202.50
2023-03-06T09:21:09.623Z,74.50
2023-03-06T09:23:39.036Z,111.50
2023-03-06T09:26:06.981Z,22.60
2023-03-06T09:28:39.279Z,17.50
2023-03-06T09:31:08.459Z,16.10
2023-03-06T09:33:35.686Z,10.80
2023-03-06T09:36:05.811Z,21.20
2023-03-06T09:38:32.985Z,20.80
2023-03-06T09:41:11.390Z,7.70
2023-03-06T09:43:46.090Z,7.00
2023-03-06T09:46:22.034Z,6.40
2023-03-06T09:49:24.941Z,5.40
2023-03-06T09:52:18.751Z,5.90
2023-03-06T09:54:55.171Z,5.40
2023-03-06T09:57:26.557Z,4.90
2023-03-06T09:59:56.371Z,5.40
2023-03-06T10:02:38.594Z,5.10
2023-03-06T10:05:12.876Z,4.20
2023-03-06T10:07:48.638Z,4.60
2023-03-06T10:10:25.476Z,4.90
2023-03-06T10:13:06.133Z,5.30
2023-03-06T10:15:38.959Z,5.00
2023-03-06T10:18:06.263Z,4.70
2023-03-06T10:20:40.694Z,4.40
2023-03-06T10:23:26.470Z,4.40
2023-03-06T10:26:06.688Z,4.50
2023-03-06T10:28:45.043Z,4.80
2023-03-06T10:31:23.283Z,4.00
2023-03-06T10:34:11.786Z,3.60
2023-03-06T10:36:38.737Z,4.10
2023-03-06T10:39:14.661Z,3.90
2023-03-06T10:41:41.565Z,3.80
2023-03-06T10:44:16.620Z,4.80
2023-03-06T10:46:47.331Z,3.70
2023-03-06T10:49:14.445Z,3.20
2023-03-06T10:54:42.574Z,3.90
2023-03-06T10:57:28.147Z,3.80
2023-03-06T11:00:00.781Z,3.70
2023-03-06T11:02:32.759Z,3.50
2023-03-06T11:05:00.975Z,4.10
2023-03-06T11:07:31.025Z,3.30
2023-03-06T11:10:03.160Z,3.60
2023-03-06T11:12:37.423Z,4.20
2023-03-06T11:15:13.933Z,6.60
2023-03-06T11:18:23.519Z,5.10
2023-03-06T11:20:54.021Z,12.70
2023-03-06T11:23:42.000Z,4.90
2023-03-06T11:26:15.164Z,4.50
2023-03-06T11:29:06.513Z,4.10
2023-03-06T11:31:39.211Z,4.80
2023-03-06T11:34:42.307Z,4.10
2023-03-06T11:38:23.209Z,3.90
2023-03-06T11:41:02.681Z,4.30
2023-03-06T11:44:14.331Z,4.30
2023-03-06T11:47:22.084Z,4.50
2023-03-06T11:50:27.389Z,4.40
2023-03-06T11:53:01.033Z,4.30
2023-03-06T11:55:43.538Z,3.60
2023-03-06T11:58:35.179Z,4.60
2023-03-06T12:01:05.696Z,4.80
2023-03-06T12:03:47.005Z,4.30
2023-03-06T12:06:22.459Z,4.50
2023-03-06T12:08:53.698Z,4.90
2023-03-06T12:11:38.745Z,4.20
2023-03-06T12:14:15.121Z,4.70
2023-03-06T12:17:03.636Z,5.00
2023-03-06T12:20:19.628Z,4.40
2023-03-06T12:23:15.266Z,4.20
2023-03-06T12:26:01.958Z,17.10
2023-03-06T12:28:35.403Z,15.30
2023-03-06T12:31:25.184Z,16.30
2023-03-06T12:34:18.288Z,11.60
2023-03-06T12:36:53.268Z,9.40
2023-03-06T12:40:06.006Z,6.70
2023-03-06T12:43:01.510Z,4.70
2023-03-06T12:45:37.078Z,3.90
2023-03-06T12:48:23.624Z,4.10
2023-03-06T12:50:52.637Z,5.30
2023-03-06T12:53:30.209Z,4.60
2023-03-06T12:56:01.006Z,5.10
2023-03-06T12:58:31.806Z,4.30
2023-03-06T13:01:24.210Z,3.90
2023-03-06T13:04:13.214Z,4.70
2023-03-06T13:07:10.016Z,5.30
2023-03-06T13:10:08.192Z,5.10
2023-03-06T13:13:07.047Z,5.10
2023-03-06T13:19:33.641Z,4.40
2023-03-06T13:25:41.671Z,4.70
2023-03-06T13:31:34.612Z,5.00
2023-03-06T13:34:57.086Z,4.00
2023-03-06T13:38:11.828Z,4.30
2023-03-06T13:41:43.943Z,4.50
2023-03-06T13:44:25.635Z,4.20
2023-03-06T13:47:12.420Z,4.10
2023-03-06T13:49:52.256Z,4.70
2023-03-06T13:52:55.829Z,4.70
2023-03-06T13:55:42.493Z,5.70
2023-03-06T13:58:53.663Z,5.00
2023-03-06T14:01:54.620Z,4.90
2023-03-06T14:04:42.407Z,6.60
2023-03-06T14:07:36.991Z,20.80
2023-03-06T14:13:58.328Z,13.00
2023-03-06T14:16:43.809Z,10.10
2023-03-06T14:19:22.131Z,5.20
2023-03-06T14:21:57.791Z,5.30
2023-03-06T14:25:11.166Z,21.60
2023-03-06T14:28:12.377Z,6.70
2023-03-06T14:31:07.607Z,16.30
2023-03-06T14:34:24.989Z,11.70
2023-03-06T14:37:11.729Z,30.70
2023-03-06T14:39:58.666Z,15.00
2023-03-06T14:42:49.437Z,9.70
2023-03-06T14:48:19.239Z,8.90
2023-03-06T14:51:17.580Z,6.00
2023-03-06T14:54:03.609Z,14.90
2023-03-06T14:57:03.833Z,5.90
2023-03-06T14:59:52.397Z,4.50
2023-03-06T15:02:32.957Z,12.20
2023-03-06T15:05:21.122Z,15.70
2023-03-06T15:07:49.984Z,12.30
2023-03-06T15:10:28.169Z,12.00
2023-03-06T15:12:55.857Z,7.00
2023-03-06T15:15:30.322Z,7.80
2023-03-06T15:18:00.476Z,6.10
2023-03-06T15:20:51.494Z,6.90
2023-03-06T15:23:20.634Z,5.30
2023-03-06T15:25:58.775Z,6.10
2023-03-06T15:28:36.505Z,6.30
2023-03-06T15:31:09.969Z,9.30
2023-03-06T15:33:39.620Z,11.10
2023-03-06T15:36:19.699Z,10.10
2023-03-06T15:38:47.775Z,9.00
2023-03-06T15:41:38.223Z,7.20
2023-03-06T15:44:12.260Z,8.30
2023-03-06T15:46:41.342Z,9.10
2023-03-06T15:49:16.099Z,6.60
2023-03-06T15:51:43.931Z,8.90
2023-03-06T15:54:13.994Z,9.10
2023-03-06T15:56:47.043Z,9.30
2023-03-06T15:59:32.580Z,10.30
2023-03-06T16:02:03.632Z,8.80
2023-03-06T16:04:32.757Z,9.50
2023-03-06T16:07:01.104Z,11.30
2023-03-06T16:09:28.193Z,10.70
2023-03-06T16:11:55.704Z,10.10
2023-03-06T16:14:24.281Z,11.10
2023-03-06T16:16:56.134Z,10.20
2023-03-06T16:19:27.412Z,10.00
2023-03-06T16:21:56.137Z,8.70
2023-03-06T16:24:26.594Z,8.70
2023-03-06T16:26:54.841Z,9.40
2023-03-06T16:29:29.796Z,8.90
2023-03-06T16:32:01.090Z,7.80
2023-03-06T16:35:44.416Z,8.90
2023-03-06T17:00:07.167Z,14.90
2023-03-06T17:02:46.357Z,11.20
2023-03-06T17:05:21.282Z,16.10
2023-03-06T17:07:53.980Z,13.50
2023-03-06T17:10:27.709Z,13.70
2023-03-06T17:13:27.761Z,14.10
2023-03-06T17:16:01.154Z,14.40
2023-03-06T17:18:34.983Z,18.30
2023-03-06T17:21:09.309Z,19.50
2023-03-06T17:23:38.872Z,26.50
2023-03-06T17:26:12.918Z,28.20
2023-03-06T17:28:42.371Z,31.40
2023-03-06T17:31:34.890Z,26.30
2023-03-06T17:34:03.732Z,22.80
2023-03-06T17:36:33.372Z,19.50
2023-03-06T17:39:03.645Z,18.00
2023-03-06T17:41:34.361Z,26.10
2023-03-06T17:44:03.066Z,20.80
2023-03-06T17:46:32.408Z,35.70
2023-03-06T17:49:01.331Z,37.70
2023-03-06T17:51:29.759Z,29.50
2023-03-06T17:53:58.262Z,76.50
2023-03-06T17:56:26.966Z,84.20
2023-03-06T17:58:57.017Z,75.10
2023-03-06T18:01:30.345Z,50.60
2023-03-06T18:03:59.503Z,49.30
2023-03-06T18:06:30.536Z,51.90
2023-03-06T18:08:59.552Z,62.70
2023-03-06T18:11:28.494Z,78.40
2023-03-06T18:13:57.011Z,73.90
2023-03-06T18:16:26.676Z,70.30
2023-03-06T18:18:56.928Z,66.40
2023-03-06T18:21:27.574Z,58.90
2023-03-06T18:24:00.104Z,53.90
2023-03-06T18:26:32.299Z,53.50
2023-03-06T18:29:04.799Z,57.40
2023-03-06T18:31:42.452Z,58.60
2023-03-06T18:34:14.945Z,57.60
2023-03-06T18:36:47.333Z,52.00
2023-03-06T18:39:16.530Z,54.00
2023-03-06T18:41:48.105Z,54.30
2023-03-06T18:44:17.716Z,59.10
2023-03-06T18:46:48.981Z,54.90
2023-03-06T18:49:18.160Z,54.00
2023-03-06T18:51:48.541Z,57.40
2023-03-06T18:54:18.506Z,59.70
2023-03-06T18:56:47.056Z,60.20
2023-03-06T18:59:18.779Z,56.40
2023-03-06T19:01:57.650Z,51.00
2023-03-06T19:04:29.304Z,47.60
2023-03-06T19:07:00.911Z,46.80
2023-03-06T19:09:29.312Z,51.70
2023-03-06T19:11:59.478Z,45.60
2023-03-06T19:14:28.823Z,47.20
2023-03-06T19:16:57.364Z,51.70
2023-03-06T19:19:26.502Z,52.90
2023-03-06T19:21:58.426Z,55.40
2023-03-06T19:24:27.184Z,56.70
2023-03-06T19:26:55.502Z,99.40
2023-03-06T19:29:23.905Z,77.00
2023-03-06T19:31:58.943Z,60.50
2023-03-06T19:37:00.904Z,70.50
2023-03-06T19:39:29.332Z,65.40
2023-03-06T19:42:00.605Z,47.90
2023-03-06T19:44:28.963Z,43.50
2023-03-06T19:46:59.919Z,40.20
2023-03-06T19:49:30.516Z,50.10
2023-03-06T19:52:00.051Z,40.90
2023-03-06T19:54:28.484Z,37.10
2023-03-06T19:57:00.164Z,36.20
2023-03-06T19:59:28.753Z,35.80
2023-03-06T20:01:57.291Z,35.70
2023-03-06T20:04:26.470Z,38.10
2023-03-06T20:06:56.477Z,34.80
2023-03-06T20:09:25.060Z,36.00
2023-03-06T20:11:53.620Z,33.10
2023-03-06T20:14:22.011Z,35.30
2023-03-06T20:16:50.453Z,38.00
2023-03-06T20:19:19.225Z,41.30
2023-03-06T20:21:48.463Z,42.80
2023-03-06T20:24:19.562Z,40.90
2023-03-06T20:26:52.448Z,39.50
2023-03-06T20:29:30.794Z,49.20
2023-03-06T20:31:59.510Z,39.50
2023-03-06T20:34:28.148Z,33.60
2023-03-06T20:36:57.965Z,39.10
2023-03-06T20:39:32.023Z,38.00
2023-03-06T20:42:00.654Z,39.70
2023-03-06T20:44:29.638Z,36.50
2023-03-06T20:47:00.656Z,30.50
2023-03-06T20:49:39.674Z,29.80
2023-03-06T20:52:08.115Z,29.30
2023-03-06T20:54:36.606Z,31.80
2023-03-06T20:57:14.788Z,28.30
2023-03-06T20:59:45.176Z,38.70
2023-03-06T21:02:19.073Z,37.50
2023-03-06T21:04:48.140Z,38.30
2023-03-06T21:07:18.456Z,41.80
2023-03-06T21:09:52.568Z,30.50
2023-03-06T21:12:20.972Z,31.20
2023-03-06T21:14:49.355Z,21.90
2023-03-06T21:17:18.133Z,25.20
2023-03-06T21:19:46.506Z,21.80
2023-03-06T21:22:20.040Z,20.60
2023-03-06T21:24:48.632Z,25.90
2023-03-06T21:27:16.993Z,35.50
2023-03-06T21:29:47.936Z,32.10
2023-03-06T21:32:16.451Z,41.00
2023-03-06T21:34:49.334Z,33.60
2023-03-06T21:37:17.726Z,34.30
2023-03-06T21:39:46.237Z,28.90
2023-03-06T21:42:14.774Z,26.40
2023-03-06T21:44:45.764Z,29.80
2023-03-06T21:47:14.168Z,43.60
2023-03-06T21:49:42.478Z,50.70
2023-03-06T21:52:11.119Z,47.20
2023-03-06T21:54:39.447Z,42.00
2023-03-06T21:57:07.949Z,42.20
2023-03-06T21:59:37.959Z,39.60
2023-03-06T22:02:11.257Z,37.80
2023-03-06T22:04:40.063Z,41.10
2023-03-06T22:07:08.422Z,38.80
2023-03-06T22:09:37.569Z,39.70
2023-03-06T22:12:06.373Z,39.10
2023-03-06T22:14:34.812Z,37.50
2023-03-06T22:17:03.303Z,33.70
2023-03-06T22:19:31.717Z,36.10
2023-03-06T22:22:00.045Z,34.10
2023-03-06T22:24:30.654Z,31.40
2023-03-06T22:27:03.517Z,30.60
2023-03-06T22:29:42.235Z,30.40
2023-03-06T22:32:10.825Z,34.50
2023-03-06T22:34:39.420Z,31.00
2023-03-06T22:37:11.223Z,25.90
2023-03-06T22:39:39.535Z,25.30
2023-03-06T22:42:07.838Z,25.40
2023-03-06T22:44:36.210Z,34.50
2023-03-06T22:47:08.657Z,23.90
2023-03-06T22:49:37.986Z,23.30
2023-03-06T22:52:08.339Z,22.60
2023-03-06T22:54:36.659Z,23.10
2023-03-06T22:57:07.472Z,20.10
2023-03-06T22:59:35.982Z,20.60
2023-03-06T23:02:04.649Z,20.90
2023-03-06T23:04:33.031Z,21.30
2023-03-06T23:07:01.500Z,19.40
2023-03-06T23:09:33.400Z,20.70
2023-03-06T23:12:22.492Z,19.90
2023-03-06T23:15:39.169Z,21.10
2023-03-06T23:18:29.375Z,19.80
2023-03-06T23:21:19.153Z,20.90
2023-03-06T23:24:07.012Z,23.30
2023-03-06T23:26:35.494Z,25.80
2023-03-06T23:29:07.784Z,21.20
2023-03-06T23:31:44.572Z,22.90
2023-03-06T23:34:13.584Z,22.30
2023-03-06T23:36:41.954Z,22.50
2023-03-06T23:39:12.305Z,22.70
2023-03-06T23:41:44.465Z,21.40
2023-03-06T23:44:13.968Z,21.20
2023-03-06T23:46:45.431Z,19.70
2023-03-06T23:49:13.784Z,19.60
2023-03-06T23:51:42.303Z,20.10
2023-03-06T23:54:11.124Z,20.60
2023-03-06T23:56:39.767Z,20.10
2023-03-06T23:59:10.251Z,20.00
